createdAt,value
2023-01-29T00:01:51.865Z,12.77
2023-01-29T00:04:18.658Z,13.68
2023-01-29T00:06:45.312Z,13.38
2023-01-29T00:09:12.809Z,13.98
2023-01-29T00:11:40.208Z,12.52
2023-01-29T00:14:07.673Z,12.50
2023-01-29T00:16:34.326Z,13.40
2023-01-29T00:19:02.459Z,14.90
2023-01-29T00:21:31.051Z,13.25
2023-01-29T00:23:58.558Z,13.52
2023-01-29T00:26:26.200Z,12.95
2023-01-29T00:28:53.108Z,14.73
2023-01-29T00:31:23.025Z,13.75
2023-01-29T00:33:50.131Z,12.95
2023-01-29T00:36:19.116Z,13.45
2023-01-29T00:38:54.456Z,12.35
2023-01-29T00:41:41.572Z,13.90
2023-01-29T00:44:28.561Z,13.68
2023-01-29T00:46:55.280Z,13.70
2023-01-29T00:49:22.109Z,12.85
2023-01-29T00:52:09.002Z,13.50
2023-01-29T00:54:36.568Z,12.43
2023-01-29T00:57:04.178Z,11.65
2023-01-29T00:59:31.907Z,13.45
2023-01-29T01:02:17.621Z,12.52
2023-01-29T01:04:44.335Z,12.73
2023-01-29T01:09:55.904Z,12.07
2023-01-29T01:12:22.961Z,11.65
2023-01-29T01:14:50.318Z,12.77
2023-01-29T01:17:17.386Z,14.48
2023-01-29T01:19:44.329Z,14.15
2023-01-29T01:22:11.255Z,11.20
2023-01-29T01:24:38.973Z,11.77
2023-01-29T01:27:05.989Z,12.57
2023-01-29T01:29:33.578Z,13.70
2023-01-29T01:32:00.734Z,13.63
2023-01-29T01:34:28.052Z,12.00
2023-01-29T01:36:56.248Z,12.70
2023-01-29T01:39:24.102Z,12.95
2023-01-29T01:41:54.864Z,13.30
2023-01-29T01:45:00.602Z,11.68
2023-01-29T01:47:33.881Z,11.52
2023-01-29T01:50:14.607Z,12.45
2023-01-29T01:52:47.729Z,11.13
2023-01-29T01:55:20.029Z,11.52
2023-01-29T01:57:48.868Z,11.80
2023-01-29T02:00:18.218Z,13.88
2023-01-29T02:03:05.170Z,11.75
2023-01-29T02:05:52.750Z,12.50
2023-01-29T02:08:54.286Z,10.82
2023-01-29T02:11:20.976Z,11.75
2023-01-29T02:13:53.539Z,12.13
2023-01-29T02:16:25.749Z,11.65
2023-01-29T02:18:53.076Z,11.50
2023-01-29T02:21:44.447Z,11.82
2023-01-29T02:24:30.564Z,12.88
2023-01-29T02:27:13.617Z,12.73
2023-01-29T02:29:52.375Z,12.00
2023-01-29T02:32:32.885Z,12.32
2023-01-29T02:35:25.987Z,12.77
2023-01-29T02:38:02.678Z,12.57
2023-01-29T02:40:38.448Z,12.75
2023-01-29T02:43:20.967Z,12.57
2023-01-29T02:45:53.094Z,13.10
2023-01-29T02:50:57.928Z,13.52
2023-01-29T02:53:27.094Z,13.82
2023-01-29T02:56:00.028Z,14.10
2023-01-29T02:59:01.895Z,13.98
2023-01-29T03:01:35.839Z,14.45
2023-01-29T03:04:12.908Z,13.60
2023-01-29T03:06:45.388Z,12.50
2023-01-29T03:09:29.956Z,14.25
2023-01-29T03:12:04.320Z,13.60
2023-01-29T03:14:55.090Z,14.15
2023-01-29T03:17:27.293Z,15.45
2023-01-29T03:19:54.536Z,14.55
2023-01-29T03:22:23.646Z,16.00
2023-01-29T03:25:13.792Z,17.00
2023-01-29T03:28:10.405Z,14.63
2023-01-29T03:31:18.635Z,15.30
2023-01-29T03:34:24.088Z,15.82
2023-01-29T03:37:00.070Z,14.43
2023-01-29T03:39:28.711Z,14.80
2023-01-29T03:42:23.622Z,14.68
2023-01-29T03:45:09.550Z,15.10
2023-01-29T03:48:04.068Z,16.27
2023-01-29T03:51:07.056Z,15.88
2023-01-29T03:53:47.385Z,15.77
2023-01-29T03:56:35.138Z,17.52
2023-01-29T03:59:21.005Z,18.27
2023-01-29T04:02:27.709Z,17.08
2023-01-29T04:05:00.519Z,17.35
2023-01-29T04:07:33.220Z,16.48
2023-01-29T04:10:18.125Z,18.48
2023-01-29T04:15:24.102Z,15.98
2023-01-29T04:17:53.073Z,19.73
2023-01-29T04:20:26.073Z,18.33
2023-01-29T04:22:53.360Z,17.85
2023-01-29T04:25:28.865Z,18.88
2023-01-29T04:28:06.480Z,18.58
2023-01-29T04:30:42.369Z,17.58
2023-01-29T04:33:23.222Z,17.35
2023-01-29T04:36:18.080Z,18.45
2023-01-29T04:39:06.024Z,18.20
2023-01-29T04:42:07.201Z,18.00
2023-01-29T04:44:39.480Z,17.75
2023-01-29T04:47:24.757Z,16.95
2023-01-29T04:50:10.358Z,18.70
2023-01-29T04:53:07.375Z,17.95
2023-01-29T04:56:12.401Z,18.48
2023-01-29T04:58:50.628Z,17.90
2023-01-29T05:01:19.757Z,18.13
2023-01-29T05:03:51.285Z,19.45
2023-01-29T05:06:18.977Z,20.92
2023-01-29T05:08:47.472Z,18.13
2023-01-29T05:11:14.454Z,19.55
2023-01-29T05:13:43.012Z,18.90
2023-01-29T05:16:21.622Z,18.40
2023-01-29T05:18:48.479Z,17.98
2023-01-29T05:21:15.176Z,19.27
2023-01-29T05:23:52.976Z,20.80
2023-01-29T05:26:40.074Z,17.50
2023-01-29T05:29:06.765Z,19.05
2023-01-29T05:31:33.517Z,18.33
2023-01-29T05:34:00.370Z,18.88
2023-01-29T05:36:27.216Z,19.20
2023-01-29T05:38:53.871Z,19.13
2023-01-29T05:41:21.032Z,19.52
2023-01-29T05:43:47.764Z,18.48
2023-01-29T05:46:14.495Z,18.00
2023-01-29T05:48:41.205Z,18.92
2023-01-29T05:51:07.873Z,19.58
2023-01-29T05:53:34.584Z,18.13
2023-01-29T05:56:02.990Z,17.58
2023-01-29T05:58:33.328Z,17.50
2023-01-29T06:01:16.213Z,20.40
2023-01-29T06:03:43.752Z,16.98
2023-01-29T06:06:10.796Z,19.13
2023-01-29T06:08:37.724Z,19.15
2023-01-29T06:11:07.084Z,18.50
2023-01-29T06:13:33.854Z,18.25
2023-01-29T06:16:00.675Z,18.73
2023-01-29T06:18:27.305Z,19.80
2023-01-29T06:20:54.018Z,21.40
2023-01-29T06:23:20.655Z,19.92
2023-01-29T06:25:47.316Z,18.52
2023-01-29T06:28:13.987Z,19.50
2023-01-29T06:30:40.678Z,19.30
2023-01-29T06:33:07.377Z,18.60
2023-01-29T06:35:34.821Z,20.15
2023-01-29T06:38:01.806Z,19.58
2023-01-29T06:40:28.498Z,18.75
2023-01-29T06:42:55.151Z,18.92
2023-01-29T06:45:21.843Z,19.33
2023-01-29T06:47:48.541Z,20.48
2023-01-29T06:50:15.732Z,19.92
2023-01-29T06:52:42.542Z,20.50
2023-01-29T06:55:09.579Z,19.42
2023-01-29T06:57:36.375Z,19.48
2023-01-29T07:00:04.227Z,20.67
2023-01-29T07:02:30.937Z,21.40
2023-01-29T07:04:57.709Z,18.02
2023-01-29T07:07:24.477Z,20.13
2023-01-29T07:09:51.099Z,18.98
2023-01-29T07:12:17.729Z,19.30
2023-01-29T07:14:44.424Z,21.17
2023-01-29T07:17:11.108Z,20.10
2023-01-29T07:19:37.812Z,19.58
2023-01-29T07:22:05.654Z,20.20
2023-01-29T07:24:32.776Z,19.88
2023-01-29T07:26:59.541Z,19.85
2023-01-29T07:29:26.531Z,20.58
2023-01-29T07:31:53.277Z,19.52
2023-01-29T07:34:20.037Z,22.17
2023-01-29T07:36:46.716Z,20.05
2023-01-29T07:39:13.976Z,18.98
2023-01-29T07:41:40.665Z,20.40
2023-01-29T07:44:15.740Z,21.50
2023-01-29T07:46:42.423Z,21.52
2023-01-29T07:49:09.210Z,20.42
2023-01-29T07:51:35.858Z,21.48
2023-01-29T07:54:02.524Z,19.60
2023-01-29T07:56:29.409Z,21.88
2023-01-29T07:58:56.425Z,20.15
2023-01-29T08:01:23.165Z,19.45
2023-01-29T08:03:51.348Z,19.92
2023-01-29T08:06:18.302Z,19.83
2023-01-29T08:08:44.981Z,22.20
2023-01-29T08:11:11.599Z,21.70
2023-01-29T08:13:38.255Z,20.35
2023-01-29T08:16:05.444Z,20.63
2023-01-29T08:18:32.157Z,19.02
2023-01-29T08:21:03.177Z,20.15
2023-01-29T08:23:30.358Z,20.40
2023-01-29T08:25:57.107Z,21.20
2023-01-29T08:28:23.911Z,19.88
2023-01-29T08:30:50.593Z,21.10
2023-01-29T08:33:19.468Z,21.17
2023-01-29T08:35:51.265Z,19.48
2023-01-29T08:38:18.329Z,19.50
2023-01-29T08:40:45.209Z,21.40
2023-01-29T08:43:13.112Z,21.02
2023-01-29T08:45:43.798Z,20.15
2023-01-29T08:48:11.004Z,19.83
2023-01-29T08:50:38.252Z,19.75
2023-01-29T08:53:10.025Z,20.05
2023-01-29T08:55:38.551Z,21.30
2023-01-29T08:58:06.695Z,21.75
2023-01-29T09:00:34.937Z,20.58
2023-01-29T09:03:01.831Z,20.60
2023-01-29T09:05:28.963Z,20.00
2023-01-29T09:07:59.274Z,20.75
2023-01-29T09:10:27.373Z,19.65
2023-01-29T09:12:54.077Z,21.73
2023-01-29T09:15:20.749Z,18.90
2023-01-29T09:17:49.333Z,20.30
2023-01-29T09:20:16.561Z,21.25
2023-01-29T09:22:43.928Z,20.17
2023-01-29T09:25:10.965Z,21.75
2023-01-29T09:27:37.801Z,18.42
2023-01-29T09:30:05.990Z,20.17
2023-01-29T09:35:21.797Z,18.10
2023-01-29T09:37:49.570Z,21.65
2023-01-29T09:40:41.104Z,20.05
2023-01-29T09:44:00.991Z,20.03
2023-01-29T09:46:38.497Z,21.58
2023-01-29T09:49:16.360Z,19.70
2023-01-29T09:51:51.276Z,19.63
2023-01-29T09:54:31.117Z,23.27
2023-01-29T09:56:58.390Z,20.63
2023-01-29T09:59:29.696Z,19.95
2023-01-29T10:02:15.011Z,20.70
2023-01-29T10:05:01.190Z,19.92
2023-01-29T10:07:55.582Z,21.42
2023-01-29T10:10:31.370Z,22.02
2023-01-29T10:13:29.456Z,19.63
2023-01-29T10:16:25.784Z,21.02
2023-01-29T10:19:10.718Z,19.27
2023-01-29T10:21:57.122Z,20.88
2023-01-29T10:24:41.810Z,21.02
2023-01-29T10:27:16.471Z,21.58
2023-01-29T10:29:45.071Z,19.02
2023-01-29T10:32:18.505Z,20.13
2023-01-29T10:34:54.884Z,19.95
2023-01-29T10:37:30.946Z,20.40
2023-01-29T10:39:59.998Z,21.27
2023-01-29T10:42:44.678Z,21.20
2023-01-29T10:45:40.517Z,21.20
2023-01-29T10:48:34.383Z,21.00
2023-01-29T10:51:22.805Z,20.58
2023-01-29T10:54:04.337Z,21.73
2023-01-29T10:57:04.679Z,20.77
2023-01-29T11:00:07.088Z,20.42
2023-01-29T11:02:34.439Z,20.73
2023-01-29T11:05:01.262Z,20.80
2023-01-29T11:07:28.471Z,22.92
2023-01-29T11:10:02.659Z,20.33
2023-01-29T11:12:33.332Z,19.50
2023-01-29T11:15:29.603Z,20.40
2023-01-29T11:18:06.946Z,19.70
2023-01-29T11:20:33.888Z,21.90
2023-01-29T11:23:00.626Z,20.42
2023-01-29T11:25:29.716Z,21.70
2023-01-29T11:28:00.833Z,21.30
2023-01-29T11:30:39.230Z,21.08
2023-01-29T11:33:08.295Z,20.30
2023-01-29T11:35:36.527Z,19.92
2023-01-29T11:38:16.634Z,20.85
2023-01-29T11:40:43.678Z,20.00
2023-01-29T11:43:19.994Z,19.98
2023-01-29T11:45:51.983Z,20.95
2023-01-29T11:48:21.539Z,19.73
2023-01-29T11:50:53.591Z,19.15
2023-01-29T11:53:53.421Z,20.48
2023-01-29T11:56:39.431Z,21.55
2023-01-29T11:59:16.183Z,20.65
2023-01-29T12:01:42.884Z,19.90
2023-01-29T12:04:20.479Z,22.67
2023-01-29T12:06:51.976Z,20.27
2023-01-29T12:09:22.315Z,20.65
2023-01-29T12:11:49.171Z,20.02
2023-01-29T12:14:30.011Z,21.05
2023-01-29T12:17:26.234Z,20.25
2023-01-29T12:20:04.401Z,19.40
2023-01-29T12:22:45.025Z,17.88
2023-01-29T12:25:20.337Z,20.23
2023-01-29T12:28:03.807Z,19.38
2023-01-29T12:30:47.991Z,20.58
2023-01-29T12:33:20.357Z,21.52
2023-01-29T12:36:10.886Z,17.38
2023-01-29T12:38:37.801Z,19.45
2023-01-29T12:41:13.150Z,18.70
2023-01-29T12:43:46.593Z,19.13
2023-01-29T12:46:22.244Z,17.83
2023-01-29T12:48:50.611Z,16.98
2023-01-29T12:51:20.452Z,16.52
2023-01-29T12:54:02.316Z,16.00
2023-01-29T12:56:37.118Z,18.45
2023-01-29T12:59:18.220Z,16.58
2023-01-29T13:02:07.107Z,16.83
2023-01-29T13:04:42.322Z,15.30
2023-01-29T13:07:18.768Z,15.93
2023-01-29T13:09:51.179Z,15.82
2023-01-29T13:12:19.323Z,15.38
2023-01-29T13:15:03.570Z,15.98
2023-01-29T13:17:43.726Z,15.93
2023-01-29T13:20:24.893Z,15.30
2023-01-29T13:22:54.267Z,14.10
2023-01-29T13:25:21.477Z,15.45
2023-01-29T13:27:49.013Z,15.18
2023-01-29T13:30:31.595Z,15.50
2023-01-29T13:33:09.426Z,15.80
2023-01-29T13:35:42.373Z,15.70
2023-01-29T13:38:38.546Z,15.90
2023-01-29T13:41:08.647Z,15.80
2023-01-29T13:43:41.605Z,15.02
2023-01-29T13:46:14.630Z,14.52
2023-01-29T13:48:43.624Z,15.60
2023-01-29T13:51:16.902Z,19.67
2023-01-29T13:53:56.353Z,14.95
2023-01-29T13:56:35.241Z,14.35
2023-01-29T13:59:05.253Z,16.15
2023-01-29T14:01:47.179Z,15.20
2023-01-29T14:04:21.570Z,14.48
2023-01-29T14:06:51.533Z,14.73
2023-01-29T14:09:36.792Z,15.32
2023-01-29T14:12:05.390Z,15.15
2023-01-29T14:15:04.866Z,14.73
2023-01-29T14:17:31.667Z,14.98
2023-01-29T14:20:04.371Z,13.77
2023-01-29T14:22:33.895Z,13.77
2023-01-29T14:25:04.856Z,14.38
2023-01-29T14:27:32.474Z,15.70
2023-01-29T14:30:02.748Z,18.55
2023-01-29T14:32:30.052Z,13.82
2023-01-29T14:35:19.514Z,15.40
2023-01-29T14:37:49.985Z,13.85
2023-01-29T14:40:20.543Z,15.38
2023-01-29T14:42:59.393Z,13.13
2023-01-29T14:45:32.268Z,15.00
2023-01-29T14:48:00.581Z,14.65
2023-01-29T14:50:31.710Z,16.75
2023-01-29T14:53:36.531Z,15.80
2023-01-29T14:56:27.899Z,14.82
2023-01-29T14:59:02.769Z,14.88
2023-01-29T15:01:37.438Z,15.85
2023-01-29T15:04:14.521Z,15.88
2023-01-29T15:06:52.952Z,16.20
2023-01-29T15:09:36.430Z,15.00
2023-01-29T15:12:03.748Z,15.65
2023-01-29T15:14:35.525Z,15.57
2023-01-29T15:17:08.908Z,14.93
2023-01-29T15:19:44.448Z,14.25
2023-01-29T15:22:21.841Z,15.00
2023-01-29T15:25:04.650Z,16.40
2023-01-29T15:27:31.728Z,15.35
2023-01-29T15:30:02.521Z,15.70
2023-01-29T15:32:39.634Z,18.35
2023-01-29T15:35:20.191Z,18.45
2023-01-29T15:38:00.680Z,15.80
2023-01-29T15:40:28.569Z,17.13
2023-01-29T15:42:55.272Z,17.27
2023-01-29T15:45:27.394Z,16.33
2023-01-29T15:50:23.016Z,15.88
2023-01-29T15:52:53.226Z,15.18
2023-01-29T15:55:23.229Z,15.80
2023-01-29T15:57:50.736Z,14.45
2023-01-29T16:00:24.311Z,17.65
2023-01-29T16:02:51.433Z,17.00
2023-01-29T16:05:22.018Z,16.10
2023-01-29T16:07:50.738Z,17.52
2023-01-29T16:10:24.006Z,17.30
2023-01-29T16:12:51.901Z,15.35
2023-01-29T16:15:30.453Z,17.58
2023-01-29T16:17:57.896Z,17.80
2023-01-29T16:20:52.459Z,16.20
2023-01-29T16:23:24.716Z,15.77
2023-01-29T16:25:51.922Z,18.95
2023-01-29T16:28:19.603Z,17.10
2023-01-29T16:30:46.481Z,18.27
2023-01-29T16:33:17.294Z,18.88
2023-01-29T16:35:52.050Z,15.93
2023-01-29T16:38:32.558Z,20.05
2023-01-29T16:41:13.224Z,17.55
2023-01-29T16:43:58.915Z,17.52
2023-01-29T16:46:33.619Z,17.83
2023-01-29T16:49:00.757Z,19.33
2023-01-29T16:51:30.806Z,17.25
2023-01-29T16:53:57.425Z,16.75
2023-01-29T16:56:25.974Z,14.43
2023-01-29T16:58:53.973Z,16.67
2023-01-29T17:01:22.885Z,17.30
2023-01-29T17:03:58.960Z,17.08
2023-01-29T17:06:27.263Z,14.73
2023-01-29T17:08:54.654Z,17.17
2023-01-29T17:11:30.071Z,17.23
2023-01-29T17:13:57.385Z,15.98
2023-01-29T17:16:31.697Z,17.65
2023-01-29T17:18:59.765Z,16.45
2023-01-29T17:21:28.211Z,16.52
2023-01-29T17:23:54.911Z,17.27
2023-01-29T17:26:22.608Z,17.08
2023-01-29T17:28:50.845Z,16.55
2023-01-29T17:31:17.679Z,15.63
2023-01-29T17:33:45.793Z,17.00
2023-01-29T17:36:15.231Z,17.45
2023-01-29T17:38:42.570Z,16.33
2023-01-29T17:41:19.741Z,16.15
2023-01-29T17:43:46.619Z,15.15
2023-01-29T17:46:15.740Z,15.48
2023-01-29T17:48:42.699Z,15.90
2023-01-29T17:51:13.627Z,15.30
2023-01-29T17:53:46.038Z,16.67
2023-01-29T17:56:27.510Z,16.13
2023-01-29T17:58:54.165Z,15.60
2023-01-29T18:01:20.933Z,14.75
2023-01-29T18:03:47.617Z,16.58
2023-01-29T18:06:23.658Z,16.60
2023-01-29T18:08:51.231Z,16.02
2023-01-29T18:11:17.951Z,15.45
2023-01-29T18:13:44.563Z,15.88
2023-01-29T18:16:11.222Z,17.65
2023-01-29T18:18:37.899Z,16.02
2023-01-29T18:21:04.821Z,16.88
2023-01-29T18:23:31.744Z,15.70
2023-01-29T18:25:58.483Z,16.52
2023-01-29T18:28:25.650Z,16.42
2023-01-29T18:30:52.594Z,16.45
2023-01-29T18:33:19.400Z,15.85
2023-01-29T18:35:50.325Z,16.05
2023-01-29T18:38:17.736Z,15.60
2023-01-29T18:40:44.484Z,17.75
2023-01-29T18:43:11.165Z,15.40
2023-01-29T18:45:37.872Z,16.35
2023-01-29T18:48:05.120Z,17.02
2023-01-29T18:50:31.958Z,16.85
2023-01-29T18:52:59.094Z,17.67
2023-01-29T18:55:26.698Z,15.80
2023-01-29T18:58:28.001Z,17.48
2023-01-29T19:00:40.826Z,16.73
2023-01-29T19:03:07.495Z,16.20
2023-01-29T19:05:34.433Z,15.70
2023-01-29T19:08:01.773Z,16.40
2023-01-29T19:10:28.499Z,18.45
2023-01-29T19:12:55.142Z,16.30
2023-01-29T19:15:22.830Z,16.20
2023-01-29T19:17:53.112Z,18.65
2023-01-29T19:20:19.877Z,18.73
2023-01-29T19:22:46.720Z,16.58
2023-01-29T19:25:13.656Z,17.83
2023-01-29T19:27:40.342Z,16.75
2023-01-29T19:30:08.525Z,17.52
2023-01-29T19:32:35.292Z,17.58
2023-01-29T19:35:02.207Z,16.42
2023-01-29T19:37:30.816Z,18.60
2023-01-29T19:39:57.742Z,18.70
2023-01-29T19:42:25.690Z,17.02
2023-01-29T19:44:53.314Z,17.42
2023-01-29T19:47:20.947Z,17.15
2023-01-29T19:49:47.701Z,17.45
2023-01-29T19:52:51.186Z,16.77
2023-01-29T19:55:19.737Z,15.75
2023-01-29T19:57:47.214Z,18.90
2023-01-29T20:00:15.483Z,17.30
2023-01-29T20:02:42.243Z,17.13
2023-01-29T20:05:11.942Z,17.33
2023-01-29T20:07:40.014Z,18.02
2023-01-29T20:10:09.619Z,18.25
2023-01-29T20:12:36.251Z,16.70
2023-01-29T20:15:03.497Z,18.25
2023-01-29T20:17:30.512Z,18.40
2023-01-29T20:19:57.167Z,17.55
2023-01-29T20:22:25.828Z,17.70
2023-01-29T20:24:52.446Z,18.30
2023-01-29T20:27:19.174Z,17.80
2023-01-29T20:29:46.540Z,18.42
2023-01-29T20:32:14.493Z,17.55
2023-01-29T20:34:41.484Z,16.42
2023-01-29T20:37:08.147Z,18.88
2023-01-29T20:39:34.834Z,15.57
2023-01-29T20:42:01.491Z,16.85
2023-01-29T20:44:28.129Z,15.95
2023-01-29T20:46:54.915Z,16.70
2023-01-29T20:49:21.764Z,17.75
2023-01-29T20:51:51.608Z,17.75
2023-01-29T20:54:18.357Z,18.17
2023-01-29T20:56:45.456Z,16.08
2023-01-29T20:59:13.750Z,16.60
2023-01-29T21:01:41.017Z,17.05
2023-01-29T21:04:07.802Z,15.38
2023-01-29T21:06:34.503Z,19.00
2023-01-29T21:09:01.163Z,17.52
2023-01-29T21:11:28.534Z,17.60
2023-01-29T21:13:57.668Z,17.48
2023-01-29T21:16:26.090Z,16.67
2023-01-29T21:18:55.863Z,16.00
2023-01-29T21:21:22.646Z,16.58
2023-01-29T21:23:49.389Z,17.58
2023-01-29T21:26:16.055Z,17.63
2023-01-29T21:28:42.700Z,16.67
2023-01-29T21:31:11.696Z,17.33
2023-01-29T21:33:38.704Z,15.55
2023-01-29T21:36:05.802Z,15.77
2023-01-29T21:38:32.508Z,14.27
2023-01-29T21:41:01.031Z,17.13
2023-01-29T21:43:27.686Z,15.05
2023-01-29T21:45:58.745Z,16.75
2023-01-29T21:48:26.308Z,16.02
2023-01-29T21:50:53.037Z,16.00
2023-01-29T21:53:19.799Z,17.58
2023-01-29T21:55:47.145Z,15.88
2023-01-29T21:58:14.652Z,16.88
2023-01-29T22:00:41.527Z,15.77
2023-01-29T22:03:08.233Z,16.42
2023-01-29T22:05:35.369Z,15.10
2023-01-29T22:08:02.465Z,17.25
2023-01-29T22:10:30.540Z,16.90
2023-01-29T22:12:59.810Z,15.52
2023-01-29T22:15:27.327Z,16.55
2023-01-29T22:17:54.157Z,15.30
2023-01-29T22:20:29.449Z,15.20
2023-01-29T22:23:00.376Z,18.33
2023-01-29T22:25:27.112Z,16.95
2023-01-29T22:27:53.882Z,17.10
2023-01-29T22:30:21.627Z,17.08
2023-01-29T22:32:48.648Z,18.65
2023-01-29T22:35:15.411Z,18.83
2023-01-29T22:37:42.120Z,15.43
2023-01-29T22:40:09.659Z,17.73
2023-01-29T22:42:36.476Z,17.27
2023-01-29T22:45:03.283Z,17.35
2023-01-29T22:47:32.562Z,16.83
2023-01-29T22:49:59.323Z,16.88
2023-01-29T22:52:27.750Z,17.50
2023-01-29T22:54:54.377Z,18.95
2023-01-29T22:57:21.101Z,18.73
2023-01-29T22:59:47.730Z,18.80
2023-01-29T23:02:14.424Z,18.65
2023-01-29T23:04:41.186Z,17.27
2023-01-29T23:07:07.912Z,19.15
2023-01-29T23:09:34.528Z,17.05
2023-01-29T23:12:01.377Z,19.85
2023-01-29T23:14:28.110Z,16.60
2023-01-29T23:16:54.851Z,17.83
2023-01-29T23:19:21.627Z,17.08
2023-01-29T23:21:48.443Z,18.00
2023-01-29T23:24:15.149Z,17.52
2023-01-29T23:27:00.668Z,18.23
2023-01-29T23:29:27.367Z,17.33
2023-01-29T23:31:54.069Z,17.15
2023-01-29T23:34:20.774Z,19.42
2023-01-29T23:36:47.598Z,18.70
2023-01-29T23:39:14.841Z,17.60
2023-01-29T23:41:41.533Z,17.63
2023-01-29T23:44:08.230Z,19.17
2023-01-29T23:46:35.119Z,17.65
2023-01-29T23:49:01.831Z,18.10
2023-01-29T23:51:28.602Z,18.35
2023-01-29T23:53:55.344Z,16.33
2023-01-29T23:56:22.278Z,18.95
2023-01-29T23:58:53.365Z,17.42
